Time;durP1;ratioP1;P1;durP2;ratioP2;P2;SDS_P1;SDS_P2;PMS_P1;PMS_P2;Temp;Humidity;BMP_temperature;BMP_pressure;BME280_temperature;BME280_humidity;BME280_pressure;Samples;Min_cycle;Max_cycle;Signal;HPM_P1;HPM_P2
2023/08/09 00:00:13;;;;;;;9.27;5.63;;;;;;;;;;5106911;28;20023;-65
2023/08/09 00:02:39;;;;;;;6.72;4.82;;;;;;;;;;5100222;28;20036;-65
2023/08/09 00:05:04;;;;;;;7.05;5.90;;;;;;;;;;5102462;28;20073;-65
2023/08/09 00:07:30;;;;;;;6.68;4.90;;;;;;;;;;5103050;28;20051;-65
2023/08/09 00:09:55;;;;;;;10.02;6.00;;;;;;;;;;5102367;28;20035;-65
2023/08/09 00:12:20;;;;;;;8.05;5.85;;;;;;;;;;5106232;28;20028;-65
2023/08/09 00:14:45;;;;;;;6.53;5.40;;;;;;;;;;5096697;28;20019;-65
2023/08/09 00:17:11;;;;;;;5.97;5.33;;;;;;;;;;5096519;28;20331;-65
2023/08/09 00:19:36;;;;;;;6.57;5.07;;;;;;;;;;5095809;28;20396;-65
2023/08/09 00:22:01;;;;;;;9.75;5.63;;;;;;;;;;5103956;28;20073;-65
2023/08/09 00:24:26;;;;;;;7.72;5.35;;;;;;;;;;5088994;28;20028;-65
2023/08/09 00:26:52;;;;;;;8.10;6.00;;;;;;;;;;5093549;28;20024;-65
2023/08/09 00:29:17;;;;;;;10.98;6.68;;;;;;;;;;5093322;28;20755;-65
2023/08/09 00:31:42;;;;;;;6.93;5.20;;;;;;;;;;5093596;28;20077;-65
2023/08/09 00:34:08;;;;;;;9.23;5.50;;;;;;;;;;5099900;28;20265;-65
2023/08/09 00:36:34;;;;;;;8.13;5.47;;;;;;;;;;5093890;28;20039;-64
2023/08/09 00:39:00;;;;;;;8.10;5.38;;;;;;;;;;5095521;28;20028;-65
2023/08/09 00:41:25;;;;;;;7.70;5.95;;;;;;;;;;5100041;28;20501;-64
2023/08/09 00:43:50;;;;;;;8.70;6.10;;;;;;;;;;5111579;28;20016;-64
2023/08/09 00:46:15;;;;;;;8.45;5.50;;;;;;;;;;5105106;28;20310;-64
2023/08/09 00:48:41;;;;;;;9.68;6.47;;;;;;;;;;5094955;28;20113;-64
2023/08/09 00:51:06;;;;;;;6.88;4.88;;;;;;;;;;5108714;28;20126;-64
2023/08/09 00:53:32;;;;;;;7.88;5.30;;;;;;;;;;5098056;28;20034;-64
2023/08/09 00:55:57;;;;;;;8.93;5.88;;;;;;;;;;5094132;28;20016;-64
2023/08/09 00:58:22;;;;;;;8.25;6.05;;;;;;;;;;5097484;28;20036;-65
2023/08/09 01:00:48;;;;;;;9.35;6.38;;;;;;;;;;5092480;28;20480;-64
2023/08/09 01:03:14;;;;;;;8.48;6.43;;;;;;;;;;5095488;28;20047;-64
2023/08/09 01:05:45;;;;;;;9.70;7.25;;;;;;;;;;5112628;28;20049;-64
2023/08/09 01:08:17;;;;;;;11.82;7.35;;;;;;;;;;5096866;28;20036;-65
2023/08/09 01:11:16;;;;;;;9.70;7.28;;;;;;;;;;5096176;28;20012;-65
2023/08/09 01:13:42;;;;;;;11.23;6.22;;;;;;;;;;5047205;28;20044;-65
2023/08/09 01:16:10;;;;;;;9.50;7.18;;;;;;;;;;5104410;28;20016;-66
2023/08/09 01:18:36;;;;;;;8.43;7.35;;;;;;;;;;5105918;28;20027;-66
2023/08/09 01:21:01;;;;;;;9.32;7.05;;;;;;;;;;5110848;28;20397;-66
2023/08/09 01:23:37;;;;;;;9.13;7.63;;;;;;;;;;5108836;28;20030;-65
2023/08/09 01:26:04;;;;;;;8.00;6.82;;;;;;;;;;5104225;28;20034;-66
2023/08/09 01:28:29;;;;;;;8.68;7.80;;;;;;;;;;5102256;28;20036;-65
2023/08/09 01:30:55;;;;;;;10.10;7.60;;;;;;;;;;5096477;28;20082;-65
2023/08/09 01:33:20;;;;;;;8.23;7.43;;;;;;;;;;5110088;28;20063;-66
2023/08/09 01:36:06;;;;;;;8.75;7.85;;;;;;;;;;5098420;28;20046;-66
2023/08/09 01:38:43;;;;;;;7.65;6.63;;;;;;;;;;5105983;28;20040;-66
2023/08/09 01:41:09;;;;;;;9.90;7.68;;;;;;;;;;5102528;28;20027;-66
2023/08/09 01:43:35;;;;;;;11.30;7.63;;;;;;;;;;5082861;28;20030;-66
2023/08/09 01:46:01;;;;;;;10.10;8.10;;;;;;;;;;5110925;28;20034;-65
2023/08/09 01:48:26;;;;;;;9.07;6.95;;;;;;;;;;5096211;28;20646;-64
2023/08/09 01:50:51;;;;;;;13.25;7.60;;;;;;;;;;5091762;28;20125;-65
2023/08/09 01:53:17;;;;;;;7.90;7.03;;;;;;;;;;5094702;28;20367;-65
2023/08/09 01:55:42;;;;;;;7.63;6.82;;;;;;;;;;5100833;28;20266;-65
2023/08/09 01:58:07;;;;;;;8.68;7.47;;;;;;;;;;5095614;28;20107;-65
2023/08/09 02:00:32;;;;;;;8.05;7.25;;;;;;;;;;5091702;28;20036;-64
2023/08/09 02:02:58;;;;;;;8.55;7.65;;;;;;;;;;5104052;28;20051;-65
2023/08/09 02:05:23;;;;;;;10.02;7.45;;;;;;;;;;5091404;28;20043;-66
2023/08/09 02:07:50;;;;;;;9.32;7.07;;;;;;;;;;5096916;28;20209;-67
2023/08/09 02:10:15;;;;;;;6.93;6.22;;;;;;;;;;5102516;28;20026;-66
2023/08/09 02:12:41;;;;;;;7.53;6.45;;;;;;;;;;5091673;28;20028;-66
2023/08/09 02:15:07;;;;;;;8.85;6.30;;;;;;;;;;5105646;28;20103;-66
2023/08/09 02:17:33;;;;;;;6.90;4.45;;;;;;;;;;5102621;28;20445;-65
2023/08/09 02:19:58;;;;;;;6.82;3.45;;;;;;;;;;5104390;28;20026;-65
2023/08/09 02:22:24;;;;;;;3.63;1.92;;;;;;;;;;5108776;28;20118;-65
2023/08/09 02:24:50;;;;;;;3.08;1.73;;;;;;;;;;5108322;28;20051;-65
2023/08/09 02:27:15;;;;;;;5.75;1.50;;;;;;;;;;5108838;28;20030;-66
2023/08/09 02:29:40;;;;;;;5.13;1.63;;;;;;;;;;5109151;28;20474;-67
2023/08/09 02:32:06;;;;;;;4.22;1.38;;;;;;;;;;5104574;28;20500;-67
2023/08/09 02:34:31;;;;;;;3.03;1.65;;;;;;;;;;5104995;28;20027;-65
2023/08/09 02:36:57;;;;;;;3.15;1.88;;;;;;;;;;5106344;28;20020;-65
2023/08/09 02:39:24;;;;;;;4.43;1.63;;;;;;;;;;5091688;28;20047;-65
2023/08/09 02:41:49;;;;;;;6.88;2.25;;;;;;;;;;5096491;28;20019;-65
2023/08/09 02:44:14;;;;;;;3.33;1.90;;;;;;;;;;5098944;28;20719;-65
2023/08/09 02:46:39;;;;;;;4.53;2.30;;;;;;;;;;5093889;28;20278;-65
2023/08/09 02:49:05;;;;;;;5.40;2.43;;;;;;;;;;5099062;28;20094;-65
2023/08/09 02:51:30;;;;;;;3.92;2.88;;;;;;;;;;5094952;28;20281;-66
2023/08/09 02:53:57;;;;;;;5.05;2.95;;;;;;;;;;5091417;28;20047;-66
2023/08/09 02:56:22;;;;;;;6.35;3.80;;;;;;;;;;5096909;28;20027;-65
2023/08/09 02:58:47;;;;;;;8.65;3.88;;;;;;;;;;5104030;28;20080;-65
2023/08/09 03:01:13;;;;;;;5.75;3.78;;;;;;;;;;5095007;28;20103;-65
2023/08/09 03:03:38;;;;;;;5.63;4.20;;;;;;;;;;5105791;28;20032;-66
2023/08/09 03:06:04;;;;;;;4.50;3.80;;;;;;;;;;5092593;28;20020;-65
2023/08/09 03:08:31;;;;;;;5.10;4.07;;;;;;;;;;5075915;28;20428;-66
2023/08/09 03:10:56;;;;;;;6.28;3.97;;;;;;;;;;5095479;28;20024;-65
2023/08/09 03:13:21;;;;;;;5.45;3.78;;;;;;;;;;5106625;28;20059;-65
2023/08/09 03:15:46;;;;;;;5.73;3.90;;;;;;;;;;5110092;28;20023;-65
2023/08/09 03:18:12;;;;;;;4.87;4.13;;;;;;;;;;5105917;28;20285;-65
2023/08/09 03:20:37;;;;;;;6.57;4.43;;;;;;;;;;5090128;28;20783;-65
2023/08/09 03:23:04;;;;;;;6.80;4.60;;;;;;;;;;5093779;28;20652;-65
2023/08/09 03:25:31;;;;;;;6.18;4.88;;;;;;;;;;5108378;28;20027;-65
2023/08/09 03:27:56;;;;;;;8.18;5.43;;;;;;;;;;5090512;28;20034;-65
2023/08/09 03:30:21;;;;;;;6.10;4.82;;;;;;;;;;5108704;28;20019;-65
2023/08/09 03:32:46;;;;;;;7.27;5.63;;;;;;;;;;5101662;28;20089;-65
2023/08/09 03:35:12;;;;;;;5.63;5.07;;;;;;;;;;5089590;28;20278;-65
2023/08/09 03:37:37;;;;;;;7.80;6.00;;;;;;;;;;5097734;28;20024;-66
2023/08/09 03:40:04;;;;;;;9.50;6.00;;;;;;;;;;5081711;28;20368;-65
2023/08/09 03:42:29;;;;;;;13.25;6.18;;;;;;;;;;5106569;28;20325;-66
2023/08/09 03:44:55;;;;;;;10.68;5.68;;;;;;;;;;5107036;28;20048;-65
2023/08/09 03:47:20;;;;;;;8.02;6.20;;;;;;;;;;5095350;28;20016;-65
2023/08/09 03:49:45;;;;;;;8.85;6.85;;;;;;;;;;5094466;28;20437;-65
2023/08/09 03:52:11;;;;;;;12.90;8.27;;;;;;;;;;5096497;28;20078;-66
2023/08/09 03:54:36;;;;;;;11.35;8.70;;;;;;;;;;5084282;28;20905;-66
2023/08/09 03:57:02;;;;;;;12.43;8.65;;;;;;;;;;5062073;28;20030;-65
2023/08/09 03:59:27;;;;;;;11.13;9.07;;;;;;;;;;5034262;28;20064;-65
2023/08/09 04:01:52;;;;;;;9.30;7.72;;;;;;;;;;5064760;28;20865;-65
2023/08/09 04:04:17;;;;;;;11.38;8.70;;;;;;;;;;5055211;28;20038;-66
2023/08/09 04:06:42;;;;;;;12.70;9.25;;;;;;;;;;5068236;28;20027;-65
2023/08/09 04:09:08;;;;;;;11.45;9.20;;;;;;;;;;5063843;28;20226;-65
2023/08/09 04:11:33;;;;;;;9.88;8.57;;;;;;;;;;5088856;28;20036;-66
2023/08/09 04:13:58;;;;;;;10.75;9.23;;;;;;;;;;5109162;28;20032;-66
2023/08/09 04:16:24;;;;;;;12.30;9.90;;;;;;;;;;5104187;28;20434;-65
2023/08/09 04:18:49;;;;;;;11.70;9.38;;;;;;;;;;5101568;28;20027;-65
2023/08/09 04:21:15;;;;;;;11.03;8.63;;;;;;;;;;5112947;28;20020;-65
2023/08/09 04:23:40;;;;;;;13.90;9.75;;;;;;;;;;5100392;28;20305;-66
2023/08/09 04:26:05;;;;;;;13.90;9.95;;;;;;;;;;5101943;28;20040;-65
2023/08/09 04:28:31;;;;;;;10.05;9.00;;;;;;;;;;5100941;28;20029;-65
2023/08/09 04:30:56;;;;;;;12.20;9.77;;;;;;;;;;5095559;28;20492;-65
2023/08/09 04:33:22;;;;;;;13.57;9.95;;;;;;;;;;5107466;28;20081;-65
2023/08/09 04:35:48;;;;;;;10.90;9.25;;;;;;;;;;5094892;28;20031;-65
2023/08/09 04:38:13;;;;;;;13.13;10.05;;;;;;;;;;5087575;28;20423;-66
2023/08/09 04:40:39;;;;;;;15.43;10.35;;;;;;;;;;5109480;28;20030;-65
2023/08/09 04:43:05;;;;;;;18.58;10.63;;;;;;;;;;5105510;28;20027;-65
2023/08/09 04:45:30;;;;;;;11.38;9.20;;;;;;;;;;5109600;28;20031;-66
2023/08/09 04:47:57;;;;;;;11.40;9.70;;;;;;;;;;5106893;28;20023;-66
2023/08/09 04:50:22;;;;;;;11.38;9.93;;;;;;;;;;5108482;28;20262;-66
2023/08/09 04:52:47;;;;;;;12.32;10.85;;;;;;;;;;5099129;28;20424;-66
2023/08/09 04:55:12;;;;;;;14.40;10.90;;;;;;;;;;5108988;28;20494;-65
2023/08/09 04:57:38;;;;;;;13.13;10.50;;;;;;;;;;5108758;28;20031;-66
2023/08/09 05:00:08;;;;;;;12.93;10.75;;;;;;;;;;5101260;28;20333;-65
2023/08/09 05:02:35;;;;;;;11.98;10.65;;;;;;;;;;5095263;28;20417;-65
2023/08/09 05:05:01;;;;;;;14.23;11.43;;;;;;;;;;5104429;28;20031;-66
2023/08/09 05:07:26;;;;;;;11.85;10.13;;;;;;;;;;5108491;28;20149;-66
2023/08/09 05:09:51;;;;;;;14.17;10.53;;;;;;;;;;5100120;28;20034;-65
2023/08/09 05:12:17;;;;;;;15.43;10.93;;;;;;;;;;5092394;28;20359;-65
2023/08/09 05:14:42;;;;;;;10.73;8.85;;;;;;;;;;5093309;28;20274;-65
2023/08/09 05:17:07;;;;;;;15.90;10.77;;;;;;;;;;5073145;28;20016;-66
2023/08/09 05:19:32;;;;;;;15.27;10.60;;;;;;;;;;5064254;28;20286;-66
2023/08/09 05:21:57;;;;;;;10.70;9.27;;;;;;;;;;5051833;28;20290;-64
2023/08/09 05:24:23;;;;;;;11.43;9.27;;;;;;;;;;5058716;28;20085;-66
2023/08/09 05:26:48;;;;;;;15.15;10.07;;;;;;;;;;5051982;28;20843;-64
2023/08/09 05:29:13;;;;;;;13.60;10.02;;;;;;;;;;5057933;28;20020;-64
2023/08/09 05:31:39;;;;;;;12.98;10.05;;;;;;;;;;5060446;28;20076;-66
2023/08/09 05:34:04;;;;;;;12.35;9.40;;;;;;;;;;5053498;28;20628;-65
2023/08/09 05:36:30;;;;;;;12.05;9.40;;;;;;;;;;5061805;28;20137;-65
2023/08/09 05:38:55;;;;;;;11.63;8.95;;;;;;;;;;5106510;28;20466;-64
2023/08/09 05:41:20;;;;;;;11.73;9.75;;;;;;;;;;5106447;28;20024;-64
2023/08/09 05:43:45;;;;;;;10.95;9.60;;;;;;;;;;5105939;28;20020;-64
2023/08/09 05:46:11;;;;;;;11.30;8.60;;;;;;;;;;5106210;28;20484;-64
2023/08/09 05:48:37;;;;;;;11.03;8.90;;;;;;;;;;5108123;28;20300;-64
2023/08/09 05:51:03;;;;;;;10.43;9.35;;;;;;;;;;5106234;28;20364;-65
2023/08/09 05:53:28;;;;;;;10.73;9.57;;;;;;;;;;5105990;28;20252;-64
2023/08/09 05:55:53;;;;;;;10.65;9.38;;;;;;;;;;5107064;28;20055;-64
2023/08/09 05:58:20;;;;;;;10.17;9.17;;;;;;;;;;5098766;28;20031;-64
2023/08/09 06:00:45;;;;;;;11.35;9.48;;;;;;;;;;5103895;28;20751;-64
2023/08/09 06:03:12;;;;;;;9.60;8.57;;;;;;;;;;5104455;28;20035;-64
2023/08/09 06:05:37;;;;;;;9.57;8.57;;;;;;;;;;5088067;28;20019;-65
2023/08/09 06:08:03;;;;;;;9.52;8.57;;;;;;;;;;5101308;28;20032;-65
2023/08/09 06:10:29;;;;;;;10.10;9.07;;;;;;;;;;5091589;28;20116;-65
2023/08/09 06:12:54;;;;;;;10.25;7.75;;;;;;;;;;5110887;28;20473;-65
2023/08/09 06:15:20;;;;;;;11.07;8.85;;;;;;;;;;5109204;28;20550;-65
2023/08/09 06:17:45;;;;;;;10.88;9.50;;;;;;;;;;5099258;28;20059;-65
2023/08/09 06:20:13;;;;;;;10.90;9.85;;;;;;;;;;5111021;28;20081;-65
2023/08/09 06:22:39;;;;;;;12.60;9.75;;;;;;;;;;5110696;28;20088;-65
2023/08/09 06:25:05;;;;;;;11.23;9.57;;;;;;;;;;5111040;28;20028;-65
2023/08/09 06:27:30;;;;;;;10.80;9.43;;;;;;;;;;5111455;28;20038;-65
2023/08/09 06:29:56;;;;;;;14.63;10.27;;;;;;;;;;5110890;28;20015;-65
2023/08/09 06:32:21;;;;;;;11.40;10.18;;;;;;;;;;5103057;28;20390;-65
2023/08/09 06:34:47;;;;;;;11.98;10.23;;;;;;;;;;5092359;28;20012;-65
2023/08/09 06:37:12;;;;;;;12.10;9.73;;;;;;;;;;5092172;28;20138;-65
2023/08/09 06:39:37;;;;;;;13.65;12.25;;;;;;;;;;5092729;28;20027;-65
2023/08/09 06:42:02;;;;;;;17.13;14.02;;;;;;;;;;5111328;28;20030;-65
2023/08/09 06:44:28;;;;;;;14.77;13.27;;;;;;;;;;5108705;28;20027;-65
2023/08/09 06:46:56;;;;;;;15.65;14.00;;;;;;;;;;5090777;28;20016;-65
2023/08/09 06:49:22;;;;;;;16.45;14.88;;;;;;;;;;5092975;28;20016;-65
2023/08/09 06:51:47;;;;;;;15.98;14.38;;;;;;;;;;5111044;28;20038;-65
2023/08/09 06:54:13;;;;;;;15.87;14.27;;;;;;;;;;5110323;28;20031;-65
2023/08/09 06:56:38;;;;;;;13.50;12.20;;;;;;;;;;5110663;28;20279;-65
2023/08/09 06:59:04;;;;;;;12.93;11.77;;;;;;;;;;5076410;28;20808;-65
2023/08/09 07:01:29;;;;;;;13.88;12.52;;;;;;;;;;5049261;28;20959;-65
2023/08/09 07:03:55;;;;;;;14.38;12.95;;;;;;;;;;5059445;28;20027;-66
2023/08/09 07:06:20;;;;;;;13.80;10.73;;;;;;;;;;5051154;28;20081;-65
2023/08/09 07:08:45;;;;;;;12.23;9.82;;;;;;;;;;5054025;28;20035;-65
2023/08/09 07:11:10;;;;;;;13.00;11.70;;;;;;;;;;5052239;28;20047;-66
2023/08/09 07:13:36;;;;;;;11.43;10.32;;;;;;;;;;5055639;28;20080;-66
2023/08/09 07:16:01;;;;;;;12.18;11.02;;;;;;;;;;5065667;28;20032;-66
2023/08/09 07:18:26;;;;;;;12.30;11.20;;;;;;;;;;5095500;28;20028;-65
2023/08/09 07:20:52;;;;;;;14.43;11.75;;;;;;;;;;5094631;28;20099;-66
2023/08/09 07:23:17;;;;;;;11.68;10.35;;;;;;;;;;5095145;28;20034;-66
2023/08/09 07:25:42;;;;;;;12.18;11.07;;;;;;;;;;5094258;28;20020;-66
2023/08/09 07:28:07;;;;;;;13.23;12.02;;;;;;;;;;5107610;28;20032;-65
2023/08/09 07:30:33;;;;;;;11.15;9.85;;;;;;;;;;5094669;28;20030;-65
2023/08/09 07:32:58;;;;;;;10.80;9.43;;;;;;;;;;5107915;28;20042;-66
2023/08/09 07:35:24;;;;;;;9.00;8.10;;;;;;;;;;5106003;28;20016;-66
2023/08/09 07:37:50;;;;;;;12.30;8.65;;;;;;;;;;5113268;28;20027;-65
2023/08/09 07:40:15;;;;;;;10.50;9.02;;;;;;;;;;5101383;28;20056;-66
2023/08/09 07:42:41;;;;;;;10.00;8.02;;;;;;;;;;5112525;28;20084;-66
2023/08/09 07:45:07;;;;;;;9.07;7.30;;;;;;;;;;5103371;28;20024;-66
2023/08/09 07:47:32;;;;;;;9.70;7.72;;;;;;;;;;5101814;28;20031;-66
2023/08/09 07:49:58;;;;;;;6.88;6.18;;;;;;;;;;5108437;28;20033;-66
2023/08/09 07:52:24;;;;;;;7.22;5.68;;;;;;;;;;5109186;28;20015;-66
2023/08/09 07:54:49;;;;;;;7.97;5.90;;;;;;;;;;5100120;28;20421;-66
2023/08/09 07:57:14;;;;;;;7.13;5.50;;;;;;;;;;5105831;28;20024;-66
2023/08/09 07:59:39;;;;;;;8.00;6.63;;;;;;;;;;5106368;28;20328;-65
2023/08/09 08:02:05;;;;;;;6.83;5.73;;;;;;;;;;5108818;28;20103;-66
2023/08/09 08:04:30;;;;;;;7.60;4.85;;;;;;;;;;5111068;28;20270;-67
2023/08/09 08:06:56;;;;;;;6.93;4.97;;;;;;;;;;5103016;28;20042;-66
2023/08/09 08:09:21;;;;;;;5.68;4.68;;;;;;;;;;5100760;28;20743;-66
2023/08/09 08:11:46;;;;;;;5.97;5.35;;;;;;;;;;5101455;28;20126;-67
2023/08/09 08:14:12;;;;;;;5.83;4.87;;;;;;;;;;5107864;28;20035;-65
2023/08/09 08:16:37;;;;;;;4.75;4.07;;;;;;;;;;5104836;28;20752;-65
2023/08/09 08:19:03;;;;;;;4.30;3.22;;;;;;;;;;5107355;28;20062;-66
2023/08/09 08:21:28;;;;;;;6.07;4.63;;;;;;;;;;5099125;28;20028;-67
2023/08/09 08:23:53;;;;;;;9.70;6.78;;;;;;;;;;5106275;28;20043;-65
2023/08/09 08:26:19;;;;;;;8.07;6.63;;;;;;;;;;5098649;28;20024;-65
2023/08/09 08:28:44;;;;;;;7.10;5.30;;;;;;;;;;5093689;28;20461;-64
2023/08/09 08:31:09;;;;;;;4.88;3.78;;;;;;;;;;5094309;28;20099;-64
2023/08/09 08:33:34;;;;;;;6.97;4.40;;;;;;;;;;5095110;28;20093;-66
2023/08/09 08:36:00;;;;;;;6.10;4.30;;;;;;;;;;5099020;28;20946;-65
2023/08/09 08:38:25;;;;;;;6.45;3.83;;;;;;;;;;5096866;28;20115;-65
2023/08/09 08:40:51;;;;;;;5.95;3.95;;;;;;;;;;5103141;28;20035;-66
2023/08/09 08:43:16;;;;;;;5.93;3.60;;;;;;;;;;5106195;28;20028;-66
2023/08/09 08:45:43;;;;;;;5.27;3.30;;;;;;;;;;5107892;28;20032;-66
2023/08/09 08:48:10;;;;;;;5.15;3.00;;;;;;;;;;5112739;28;20283;-65
2023/08/09 08:50:37;;;;;;;5.10;3.10;;;;;;;;;;5101095;28;20458;-66
2023/08/09 08:53:04;;;;;;;6.25;3.35;;;;;;;;;;5097355;28;20024;-65
2023/08/09 08:55:30;;;;;;;5.47;4.22;;;;;;;;;;5107225;28;20385;-65
2023/08/09 08:57:56;;;;;;;6.82;6.05;;;;;;;;;;5094440;28;20069;-65
2023/08/09 09:00:21;;;;;;;5.28;3.72;;;;;;;;;;5092987;28;20025;-65
2023/08/09 09:02:46;;;;;;;7.32;5.05;;;;;;;;;;5093008;28;20069;-65
2023/08/09 09:05:12;;;;;;;6.45;4.40;;;;;;;;;;5092934;28;20444;-65
2023/08/09 09:07:38;;;;;;;6.20;5.32;;;;;;;;;;5093743;28;20447;-66
2023/08/09 09:10:05;;;;;;;7.20;5.75;;;;;;;;;;5092816;28;20032;-65
2023/08/09 09:12:32;;;;;;;7.85;5.35;;;;;;;;;;5102918;28;20103;-66
2023/08/09 09:14:58;;;;;;;5.47;4.43;;;;;;;;;;5099621;28;20042;-65
2023/08/09 09:17:23;;;;;;;5.35;4.57;;;;;;;;;;5097102;28;20031;-66
2023/08/09 09:19:48;;;;;;;4.07;3.20;;;;;;;;;;5099673;28;20482;-65
2023/08/09 09:22:30;;;;;;;5.20;3.10;;;;;;;;;;5104829;28;20023;-66
2023/08/09 09:24:58;;;;;;;3.45;2.28;;;;;;;;;;5102967;28;20027;-65
2023/08/09 09:27:28;;;;;;;3.60;2.53;;;;;;;;;;5101441;28;20012;-65
2023/08/09 09:29:53;;;;;;;4.00;2.38;;;;;;;;;;5094572;28;20024;-66
2023/08/09 09:32:20;;;;;;;5.00;2.63;;;;;;;;;;5093441;28;20020;-66
2023/08/09 09:34:45;;;;;;;6.82;2.28;;;;;;;;;;5102543;28;20273;-65
2023/08/09 09:37:14;;;;;;;4.13;2.13;;;;;;;;;;5105129;28;20039;-66
2023/08/09 09:39:41;;;;;;;3.90;2.33;;;;;;;;;;5097394;28;20482;-66
2023/08/09 09:42:06;;;;;;;3.88;2.20;;;;;;;;;;5110323;28;20046;-65
2023/08/09 09:44:32;;;;;;;4.30;2.43;;;;;;;;;;5103125;28;20583;-66
2023/08/09 09:47:00;;;;;;;3.72;2.25;;;;;;;;;;5108435;28;20356;-66
2023/08/09 09:49:25;;;;;;;4.20;2.60;;;;;;;;;;5105525;28;20019;-66
2023/08/09 09:51:53;;;;;;;4.35;2.85;;;;;;;;;;5097478;28;20026;-65
2023/08/09 09:54:19;;;;;;;5.28;2.58;;;;;;;;;;5110831;28;20024;-66
2023/08/09 09:56:51;;;;;;;5.50;1.77;;;;;;;;;;5130385;27;20204;-66
2023/08/09 09:59:17;;;;;;;2.95;1.50;;;;;;;;;;5120489;28;20074;-66
2023/08/09 10:01:44;;;;;;;6.43;2.00;;;;;;;;;;5116831;28;20486;-66
2023/08/09 10:04:10;;;;;;;3.63;1.80;;;;;;;;;;5121931;28;20617;-66
2023/08/09 10:06:42;;;;;;;3.15;1.92;;;;;;;;;;5125269;27;20020;-66
2023/08/09 10:09:08;;;;;;;3.75;1.73;;;;;;;;;;5124004;28;20098;-66
2023/08/09 10:11:34;;;;;;;3.30;2.03;;;;;;;;;;5117899;28;20020;-66
2023/08/09 10:14:01;;;;;;;4.00;2.00;;;;;;;;;;5107656;28;20133;-66
2023/08/09 10:16:28;;;;;;;3.83;1.60;;;;;;;;;;5118340;28;20630;-66
2023/08/09 10:18:58;;;;;;;6.70;1.90;;;;;;;;;;5128007;28;20023;-66
2023/08/09 10:21:24;;;;;;;3.42;1.58;;;;;;;;;;5128365;28;20466;-66
2023/08/09 10:24:18;;;;;;;3.67;1.75;;;;;;;;;;5110898;28;20054;-66
2023/08/09 10:26:46;;;;;;;3.08;1.65;;;;;;;;;;5107538;28;20120;-66
2023/08/09 10:29:12;;;;;;;3.38;1.65;;;;;;;;;;5110462;28;20057;-66
2023/08/09 10:31:51;;;;;;;3.13;1.90;;;;;;;;;;5122156;28;20015;-65
2023/08/09 10:34:21;;;;;;;3.28;1.73;;;;;;;;;;5121264;27;20025;-65
2023/08/09 10:36:53;;;;;;;3.15;2.03;;;;;;;;;;5121331;28;20495;-66
2023/08/09 10:39:18;;;;;;;5.10;2.75;;;;;;;;;;5116109;28;20020;-65
2023/08/09 10:42:08;;;;;;;6.15;3.10;;;;;;;;;;5118256;28;20089;-65
2023/08/09 10:44:33;;;;;;;4.82;3.33;;;;;;;;;;5109008;28;20043;-65
2023/08/09 10:47:01;;;;;;;4.10;2.37;;;;;;;;;;5118718;27;20370;-66
2023/08/09 10:49:32;;;;;;;4.20;2.20;;;;;;;;;;5116180;28;20292;-67
2023/08/09 10:51:57;;;;;;;5.05;1.67;;;;;;;;;;5121382;28;20058;-66
2023/08/09 10:54:22;;;;;;;4.87;1.63;;;;;;;;;;5119403;28;20066;-66
2023/08/09 10:56:48;;;;;;;2.38;1.52;;;;;;;;;;5120472;28;20764;-65
2023/08/09 10:59:27;;;;;;;2.95;1.65;;;;;;;;;;5115465;28;20034;-66
2023/08/09 11:01:54;;;;;;;3.40;1.58;;;;;;;;;;5114475;27;20115;-66
2023/08/09 11:04:19;;;;;;;2.60;1.27;;;;;;;;;;5121766;28;20470;-66
2023/08/09 11:06:46;;;;;;;3.35;1.23;;;;;;;;;;5110211;28;20048;-65
2023/08/09 11:09:15;;;;;;;2.92;1.38;;;;;;;;;;5102839;28;20114;-66
2023/08/09 11:11:41;;;;;;;1.90;1.10;;;;;;;;;;5102235;28;20454;-66
2023/08/09 11:14:07;;;;;;;3.22;1.52;;;;;;;;;;5108744;28;20020;-66
2023/08/09 11:16:33;;;;;;;3.97;1.40;;;;;;;;;;5111811;28;20481;-66
2023/08/09 11:19:02;;;;;;;3.60;1.33;;;;;;;;;;5112049;28;20055;-66
2023/08/09 11:21:27;;;;;;;5.90;1.40;;;;;;;;;;5112808;28;20023;-66
2023/08/09 11:23:56;;;;;;;2.25;1.33;;;;;;;;;;5108494;28;20164;-65
2023/08/09 11:26:22;;;;;;;3.00;1.58;;;;;;;;;;5100656;28;20096;-66
2023/08/09 11:28:47;;;;;;;3.20;1.23;;;;;;;;;;5099955;28;20024;-66
2023/08/09 11:31:13;;;;;;;4.03;1.53;;;;;;;;;;5101216;28;20031;-66
2023/08/09 11:33:38;;;;;;;2.33;1.25;;;;;;;;;;5099181;28;20274;-66
2023/08/09 11:36:04;;;;;;;2.05;1.20;;;;;;;;;;5096373;28;20426;-66
2023/08/09 11:38:29;;;;;;;3.22;1.45;;;;;;;;;;5097941;28;20024;-66
2023/08/09 11:40:54;;;;;;;2.47;1.67;;;;;;;;;;5092731;28;20111;-66
2023/08/09 11:43:20;;;;;;;2.33;1.03;;;;;;;;;;5092598;28;20767;-66
2023/08/09 11:45:49;;;;;;;3.75;1.58;;;;;;;;;;5092741;28;20285;-66
2023/08/09 11:48:24;;;;;;;2.50;1.33;;;;;;;;;;5092905;28;20024;-66
2023/08/09 11:51:00;;;;;;;2.58;1.40;;;;;;;;;;5093297;28;20033;-66
2023/08/09 11:53:25;;;;;;;2.45;1.25;;;;;;;;;;5092894;28;20012;-66
2023/08/09 11:55:50;;;;;;;3.03;1.63;;;;;;;;;;5092831;28;20103;-66
2023/08/09 11:58:16;;;;;;;2.77;1.40;;;;;;;;;;5110497;28;20278;-66
2023/08/09 12:00:42;;;;;;;3.78;1.38;;;;;;;;;;5106684;28;20651;-66
2023/08/09 12:03:07;;;;;;;2.50;1.17;;;;;;;;;;5102793;28;20020;-67
2023/08/09 12:05:32;;;;;;;2.77;1.30;;;;;;;;;;5102607;28;20031;-67
2023/08/09 12:08:03;;;;;;;6.57;1.20;;;;;;;;;;5097398;28;20028;-67
2023/08/09 12:10:28;;;;;;;2.20;1.10;;;;;;;;;;5110798;28;20280;-67
2023/08/09 12:12:53;;;;;;;2.60;1.20;;;;;;;;;;5112440;28;20024;-67
2023/08/09 12:15:19;;;;;;;4.00;1.63;;;;;;;;;;5111311;28;20118;-67
2023/08/09 12:17:48;;;;;;;2.65;1.40;;;;;;;;;;5111849;28;20019;-66
2023/08/09 12:20:13;;;;;;;3.95;1.55;;;;;;;;;;5110331;28;20422;-66
2023/08/09 12:22:38;;;;;;;3.13;1.30;;;;;;;;;;5111910;28;20068;-66
2023/08/09 12:25:04;;;;;;;3.20;1.50;;;;;;;;;;5109712;28;20465;-67
2023/08/09 12:27:29;;;;;;;2.00;1.10;;;;;;;;;;5108453;28;20020;-66
2023/08/09 12:29:55;;;;;;;1.97;1.20;;;;;;;;;;5110592;28;20035;-66
2023/08/09 12:32:20;;;;;;;3.03;1.35;;;;;;;;;;5106860;28;20270;-66
2023/08/09 12:34:48;;;;;;;2.20;1.13;;;;;;;;;;5106079;28;20031;-66
2023/08/09 12:37:13;;;;;;;3.90;1.30;;;;;;;;;;5109446;28;20020;-66
2023/08/09 12:39:38;;;;;;;2.55;1.10;;;;;;;;;;5107550;28;20031;-67
2023/08/09 12:42:04;;;;;;;1.70;1.00;;;;;;;;;;5110183;28;20110;-67
2023/08/09 12:44:29;;;;;;;4.32;1.23;;;;;;;;;;5078570;28;20081;-66
2023/08/09 12:46:54;;;;;;;2.08;1.08;;;;;;;;;;5110321;28;20027;-67
2023/08/09 12:49:20;;;;;;;1.60;0.80;;;;;;;;;;5106746;28;20358;-66
2023/08/09 12:51:46;;;;;;;2.33;1.02;;;;;;;;;;5107011;28;20024;-67
2023/08/09 12:54:11;;;;;;;1.90;1.10;;;;;;;;;;5099726;28;20028;-67
2023/08/09 12:56:37;;;;;;;3.25;1.17;;;;;;;;;;5106481;28;20024;-67
2023/08/09 12:59:03;;;;;;;4.07;1.30;;;;;;;;;;5108464;28;20110;-67
2023/08/09 13:01:28;;;;;;;2.17;1.10;;;;;;;;;;5106512;28;20400;-67
2023/08/09 13:03:54;;;;;;;2.30;1.10;;;;;;;;;;5109442;28;20027;-68
2023/08/09 13:06:20;;;;;;;4.40;1.20;;;;;;;;;;5094873;28;20262;-67
2023/08/09 13:08:45;;;;;;;2.10;1.27;;;;;;;;;;5108201;28;20023;-67
2023/08/09 13:11:11;;;;;;;2.67;1.50;;;;;;;;;;5111928;28;20059;-65
2023/08/09 13:13:37;;;;;;;2.22;1.10;;;;;;;;;;5111508;28;20020;-67
2023/08/09 13:16:04;;;;;;;2.25;1.10;;;;;;;;;;5111371;28;20020;-67
2023/08/09 13:18:29;;;;;;;3.88;1.20;;;;;;;;;;5110937;28;20058;-67
2023/08/09 13:20:55;;;;;;;2.05;1.23;;;;;;;;;;5111199;28;20019;-67
2023/08/09 13:23:20;;;;;;;1.97;1.10;;;;;;;;;;5097929;28;20101;-66
2023/08/09 13:25:45;;;;;;;2.80;1.42;;;;;;;;;;5102562;28;20277;-66
2023/08/09 13:28:10;;;;;;;4.90;1.50;;;;;;;;;;5092882;28;20143;-66
2023/08/09 13:30:36;;;;;;;5.07;1.33;;;;;;;;;;5093537;28;20270;-66
2023/08/09 13:33:01;;;;;;;3.53;1.52;;;;;;;;;;5092604;28;20278;-66
2023/08/09 13:35:26;;;;;;;2.17;1.15;;;;;;;;;;5095594;28;20020;-66
2023/08/09 13:37:52;;;;;;;2.37;1.10;;;;;;;;;;5092861;28;20429;-66
2023/08/09 13:40:17;;;;;;;2.37;1.23;;;;;;;;;;5097177;28;20280;-66
2023/08/09 13:42:43;;;;;;;3.22;1.60;;;;;;;;;;5097863;28;20270;-66
2023/08/09 13:45:08;;;;;;;2.25;1.10;;;;;;;;;;5090722;28;20031;-66
2023/08/09 13:47:34;;;;;;;2.88;1.38;;;;;;;;;;5092946;28;20024;-66
2023/08/09 13:50:00;;;;;;;3.17;1.50;;;;;;;;;;5094883;28;20027;-66
2023/08/09 13:52:25;;;;;;;2.67;1.80;;;;;;;;;;5097208;28;20115;-66
2023/08/09 13:54:51;;;;;;;3.03;1.38;;;;;;;;;;5093917;28;20486;-65
2023/08/09 13:57:16;;;;;;;2.58;1.55;;;;;;;;;;5104641;28;20098;-65
2023/08/09 13:59:41;;;;;;;5.60;1.55;;;;;;;;;;5100801;28;20024;-66
2023/08/09 14:02:07;;;;;;;2.10;1.20;;;;;;;;;;5109647;28;20031;-66
2023/08/09 14:04:32;;;;;;;3.80;1.45;;;;;;;;;;5108794;28;20281;-66
2023/08/09 14:06:59;;;;;;;2.42;1.30;;;;;;;;;;5103860;28;20084;-66
2023/08/09 14:09:25;;;;;;;2.80;1.30;;;;;;;;;;5104255;28;20421;-66
2023/08/09 14:11:50;;;;;;;3.03;1.30;;;;;;;;;;5109331;28;20035;-66
2023/08/09 14:14:16;;;;;;;2.13;1.30;;;;;;;;;;5110053;28;20106;-66
2023/08/09 14:16:42;;;;;;;3.67;1.70;;;;;;;;;;5103649;28;20027;-66
2023/08/09 14:19:08;;;;;;;2.20;1.40;;;;;;;;;;5099424;28;20024;-67
2023/08/09 14:21:33;;;;;;;2.45;1.38;;;;;;;;;;5101910;28;20019;-67
2023/08/09 14:23:58;;;;;;;2.30;1.30;;;;;;;;;;5080548;28;20816;-66
2023/08/09 14:26:23;;;;;;;2.38;1.30;;;;;;;;;;5053840;28;20016;-68
2023/08/09 14:28:49;;;;;;;3.15;1.50;;;;;;;;;;5060152;28;21565;-67
2023/08/09 14:31:14;;;;;;;2.27;1.40;;;;;;;;;;5062342;28;20031;-67